createdAt,value
2019-01-26T00:00:37.855Z,98699.00
2019-01-26T00:03:15.791Z,98694.00
2019-01-26T00:05:52.623Z,98683.00
2019-01-26T00:08:30.641Z,98678.00
2019-01-26T00:11:09.668Z,98684.00
2019-01-26T00:13:46.850Z,98686.00
2019-01-26T00:16:23.621Z,98692.00
2019-01-26T00:19:00.492Z,98683.00
2019-01-26T00:21:37.388Z,98665.00
2019-01-26T00:24:14.863Z,98659.00
2019-01-26T00:26:52.269Z,98670.00
2019-01-26T00:29:29.143Z,98658.00
2019-01-26T00:32:06.123Z,98645.00
2019-01-26T00:34:42.899Z,98662.00
2019-01-26T00:37:19.674Z,98654.00
2019-01-26T00:39:56.540Z,98660.00
2019-01-26T00:42:33.521Z,98644.00
2019-01-26T00:45:13.521Z,98639.00
2019-01-26T00:47:50.246Z,98641.00
2019-01-26T00:50:27.244Z,98651.00
2019-01-26T00:53:04.217Z,98643.00
2019-01-26T00:55:40.982Z,98637.00
2019-01-26T00:58:23.528Z,98647.00
2019-01-26T01:01:00.584Z,98634.00
2019-01-26T01:03:37.418Z,98629.00
2019-01-26T01:06:14.544Z,98633.00
2019-01-26T01:08:52.344Z,98640.00
2019-01-26T01:11:29.217Z,98629.00
2019-01-26T01:14:05.887Z,98629.00
2019-01-26T01:16:42.661Z,98631.00
2019-01-26T01:19:20.372Z,98628.00
2019-01-26T01:21:58.376Z,98617.00
2019-01-26T01:24:35.153Z,98625.00
2019-01-26T01:27:12.017Z,98609.00
2019-01-26T01:29:48.915Z,98614.00
2019-01-26T01:32:26.092Z,98612.00
2019-01-26T01:35:02.978Z,98616.00
2019-01-26T01:37:41.285Z,98595.00
2019-01-26T01:40:18.565Z,98595.00
2019-01-26T01:42:56.567Z,98574.00
2019-01-26T01:45:33.347Z,98587.00
2019-01-26T01:48:10.087Z,98581.00
2019-01-26T01:50:48.334Z,98581.00
2019-01-26T01:53:25.302Z,98576.00
2019-01-26T01:56:02.195Z,98574.00
2019-01-26T01:58:39.065Z,98563.00
2019-01-26T02:01:15.835Z,98572.00
2019-01-26T02:03:52.915Z,98565.00
2019-01-26T02:06:29.692Z,98560.00
2019-01-26T02:09:08.668Z,98567.00
2019-01-26T02:11:45.529Z,98545.00
2019-01-26T02:14:22.390Z,98539.00
2019-01-26T02:17:00.188Z,98546.00
2019-01-26T02:19:38.500Z,98560.00
2019-01-26T02:22:15.473Z,98542.00
2019-01-26T02:24:52.461Z,98544.00
2019-01-26T02:27:31.997Z,98531.00
2019-01-26T02:30:13.787Z,98515.00
2019-01-26T02:32:50.661Z,98518.00
2019-01-26T02:35:28.473Z,98506.00
2019-01-26T02:38:05.244Z,98480.00
2019-01-26T02:40:42.147Z,98480.00
2019-01-26T02:43:19.101Z,98476.00
2019-01-26T02:45:56.183Z,98466.00
2019-01-26T02:48:33.212Z,98480.00
2019-01-26T02:51:10.040Z,98458.00
2019-01-26T02:53:48.051Z,98476.00
2019-01-26T02:56:24.773Z,98471.00
2019-01-26T02:59:02.615Z,98465.00
2019-01-26T03:01:40.841Z,98442.00
2019-01-26T03:04:17.616Z,98453.00
2019-01-26T03:06:54.398Z,98452.00
2019-01-26T03:09:31.257Z,98442.00
2019-01-26T03:12:08.138Z,98434.00
2019-01-26T03:14:45.227Z,98440.00
2019-01-26T03:17:22.094Z,98422.00
2019-01-26T03:20:00.728Z,98424.00
2019-01-26T03:22:37.592Z,98439.00
2019-01-26T03:25:16.765Z,98431.00
2019-01-26T03:27:55.653Z,98421.00
2019-01-26T03:30:32.749Z,98424.00
2019-01-26T03:33:09.630Z,98421.00
2019-01-26T03:35:46.290Z,98408.00
2019-01-26T03:38:23.159Z,98414.00
2019-01-26T03:41:00.243Z,98406.00
2019-01-26T03:43:37.233Z,98416.00
2019-01-26T03:46:14.214Z,98391.00
2019-01-26T03:48:51.603Z,98402.00
2019-01-26T03:51:28.576Z,98405.00
2019-01-26T03:54:05.609Z,98402.00
2019-01-26T03:56:43.463Z,98404.00
2019-01-26T03:59:20.227Z,98367.00
2019-01-26T04:01:57.116Z,98369.00
2019-01-26T04:04:34.103Z,98372.00
2019-01-26T04:07:10.969Z,98353.00
2019-01-26T04:09:47.754Z,98354.00
2019-01-26T04:12:24.731Z,98355.00
2019-01-26T04:15:01.710Z,98348.00
2019-01-26T04:17:38.685Z,98361.00
2019-01-26T04:20:18.615Z,98356.00
2019-01-26T04:22:55.523Z,98347.00
2019-01-26T04:25:32.295Z,98348.00
2019-01-26T04:28:09.067Z,98344.00
2019-01-26T04:30:45.848Z,98340.00
2019-01-26T04:33:22.826Z,98335.00
2019-01-26T04:35:59.708Z,98329.00
2019-01-26T04:38:36.489Z,98313.00
2019-01-26T04:41:13.255Z,98310.00
2019-01-26T04:43:50.241Z,98305.00
2019-01-26T04:46:27.114Z,98312.00
2019-01-26T04:49:05.832Z,98305.00
2019-01-26T04:51:42.818Z,98301.00
2019-01-26T04:54:20.823Z,98302.00
2019-01-26T04:56:58.010Z,98294.00
2019-01-26T04:59:34.883Z,98282.00
2019-01-26T05:02:11.863Z,98288.00
2019-01-26T05:04:48.645Z,98291.00
2019-01-26T05:07:25.416Z,98288.00
2019-01-26T05:10:03.107Z,98268.00
2019-01-26T05:12:39.980Z,98290.00
2019-01-26T05:15:17.804Z,98285.00
2019-01-26T05:17:54.612Z,98272.00
2019-01-26T05:20:31.466Z,98265.00
2019-01-26T05:23:09.756Z,98280.00
2019-01-26T05:25:46.636Z,98261.00
2019-01-26T05:28:23.613Z,98270.00
2019-01-26T05:31:00.414Z,98268.00
2019-01-26T05:33:37.154Z,98261.00
2019-01-26T05:36:14.455Z,98260.00
2019-01-26T05:38:51.226Z,98237.00
2019-01-26T05:41:28.111Z,98237.00
2019-01-26T05:44:05.180Z,98242.00
2019-01-26T05:46:41.969Z,98240.00
2019-01-26T05:49:18.942Z,98232.00
2019-01-26T05:51:55.921Z,98239.00
2019-01-26T05:54:32.697Z,98238.00
2019-01-26T05:57:09.463Z,98232.00
2019-01-26T05:59:46.250Z,98225.00
2019-01-26T06:02:23.231Z,98218.00
2019-01-26T06:05:00.256Z,98217.00
2019-01-26T06:07:37.289Z,98206.00
2019-01-26T06:10:14.062Z,98196.00
2019-01-26T06:12:51.047Z,98189.00
2019-01-26T06:15:28.034Z,98190.00
2019-01-26T06:18:05.006Z,98181.00
2019-01-26T06:20:41.741Z,98190.00
2019-01-26T06:23:18.761Z,98186.00
2019-01-26T06:25:55.741Z,98187.00
2019-01-26T06:28:32.614Z,98169.00
2019-01-26T06:31:09.601Z,98181.00
2019-01-26T06:33:46.575Z,98177.00
2019-01-26T06:36:23.464Z,98177.00
2019-01-26T06:39:00.432Z,98192.00
2019-01-26T06:41:37.633Z,98179.00
2019-01-26T06:44:14.522Z,98177.00
2019-01-26T06:46:51.286Z,98194.00
2019-01-26T06:49:28.166Z,98166.00
2019-01-26T06:52:06.267Z,98172.00
2019-01-26T06:54:43.151Z,98168.00
2019-01-26T06:57:20.030Z,98156.00
2019-01-26T06:59:56.757Z,98180.00
2019-01-26T07:02:33.553Z,98164.00
2019-01-26T07:05:15.231Z,98149.00
2019-01-26T07:07:52.055Z,98161.00
2019-01-26T07:10:28.837Z,98144.00
2019-01-26T07:13:05.552Z,98153.00
2019-01-26T07:15:42.330Z,98142.00
2019-01-26T07:18:19.146Z,98147.00
2019-01-26T07:20:56.005Z,98139.00
2019-01-26T07:23:32.815Z,98136.00
2019-01-26T07:26:10.038Z,98129.00
2019-01-26T07:28:46.846Z,98140.00
2019-01-26T07:31:23.562Z,98118.00
2019-01-26T07:34:00.290Z,98117.00
2019-01-26T07:36:37.150Z,98127.00
2019-01-26T07:39:13.910Z,98112.00
2019-01-26T07:41:50.667Z,98122.00
2019-01-26T07:44:27.461Z,98110.00
2019-01-26T07:47:04.673Z,98093.00
2019-01-26T07:49:41.348Z,98102.00
2019-01-26T07:52:18.158Z,98106.00
2019-01-26T07:54:54.965Z,98098.00
2019-01-26T07:57:31.787Z,98074.00
2019-01-26T08:00:15.593Z,98086.00
2019-01-26T08:02:52.445Z,98080.00
2019-01-26T08:05:29.821Z,98081.00
2019-01-26T08:08:06.686Z,98081.00
2019-01-26T08:10:44.837Z,98073.00
2019-01-26T08:13:21.776Z,98066.00
2019-01-26T08:15:58.669Z,98073.00
2019-01-26T08:18:35.691Z,98075.00
2019-01-26T08:21:12.581Z,98069.00
2019-01-26T08:23:49.398Z,98074.00
2019-01-26T08:26:26.572Z,98060.00
2019-01-26T08:29:03.271Z,98076.00
2019-01-26T08:31:40.155Z,98067.00
2019-01-26T08:34:16.941Z,98079.00
2019-01-26T08:36:53.875Z,98069.00
2019-01-26T08:39:30.929Z,98064.00
2019-01-26T08:42:07.670Z,98071.00
2019-01-26T08:44:44.494Z,98035.00
2019-01-26T08:47:22.208Z,98036.00
2019-01-26T08:49:58.958Z,98038.00
2019-01-26T08:52:35.854Z,98028.00
2019-01-26T08:55:18.097Z,98028.00
2019-01-26T08:57:52.318Z,98017.00
2019-01-26T09:00:29.757Z,98011.00
2019-01-26T09:03:08.091Z,97999.00
2019-01-26T09:05:52.444Z,98003.00
2019-01-26T09:08:29.320Z,98013.00
2019-01-26T09:11:06.170Z,97989.00
2019-01-26T09:13:42.938Z,97993.00
2019-01-26T09:16:19.745Z,97989.00
2019-01-26T09:18:56.530Z,97978.00
2019-01-26T09:21:33.301Z,97970.00
2019-01-26T09:24:10.044Z,97977.00
2019-01-26T09:26:47.058Z,97970.00
2019-01-26T09:29:23.919Z,97952.00
2019-01-26T09:32:00.763Z,97966.00
2019-01-26T09:34:37.439Z,97968.00
2019-01-26T09:37:14.144Z,97958.00
2019-01-26T09:39:50.828Z,97956.00
2019-01-26T09:42:27.606Z,97942.00
2019-01-26T09:45:06.023Z,97957.00
2019-01-26T09:47:42.692Z,97948.00
2019-01-26T09:50:20.900Z,97945.00
2019-01-26T09:52:57.888Z,97944.00
2019-01-26T09:55:34.864Z,97932.00
2019-01-26T09:58:11.696Z,97930.00
2019-01-26T10:00:48.374Z,97926.00
2019-01-26T10:03:25.297Z,97930.00
2019-01-26T10:10:52.788Z,97924.00
2019-01-26T10:13:29.660Z,97919.00
2019-01-26T10:16:06.532Z,97923.00
2019-01-26T10:21:05.246Z,97923.00
2019-01-26T10:23:42.129Z,97906.00
2019-01-26T10:26:19.174Z,97903.00
2019-01-26T10:28:55.978Z,97905.00
2019-01-26T10:31:32.766Z,97888.00
2019-01-26T10:34:09.768Z,97890.00
2019-01-26T10:42:16.312Z,97886.00
2019-01-26T10:44:53.551Z,97888.00
2019-01-26T10:47:30.329Z,97879.00
2019-01-26T10:50:09.421Z,97882.00
2019-01-26T10:52:46.274Z,97876.00
2019-01-26T10:55:23.009Z,97877.00
2019-01-26T10:57:59.816Z,97875.00
2019-01-26T11:00:36.536Z,97882.00
2019-01-26T11:03:13.343Z,97864.00
2019-01-26T11:05:50.056Z,97859.00
2019-01-26T11:08:27.231Z,97871.00
2019-01-26T11:11:04.022Z,97860.00
2019-01-26T11:13:40.784Z,97861.00
2019-01-26T11:16:17.492Z,97853.00
2019-01-26T11:18:54.190Z,97849.00
2019-01-26T11:21:31.060Z,97840.00
2019-01-26T11:24:08.054Z,97844.00
2019-01-26T11:26:49.309Z,97854.00
2019-01-26T11:29:23.491Z,97836.00
2019-01-26T11:32:00.201Z,97837.00
2019-01-26T11:34:37.145Z,97830.00
2019-01-26T11:37:13.859Z,97826.00
2019-01-26T11:39:52.251Z,97824.00
2019-01-26T11:42:30.072Z,97834.00
2019-01-26T11:45:12.702Z,97831.00
2019-01-26T11:47:49.588Z,97834.00
2019-01-26T11:50:27.921Z,97813.00
2019-01-26T11:53:05.011Z,97823.00
2019-01-26T11:55:43.247Z,97813.00
2019-01-26T11:58:20.030Z,97810.00
2019-01-26T12:00:59.589Z,97815.00
2019-01-26T12:03:38.286Z,97807.00
2019-01-26T12:06:19.320Z,97808.00
2019-01-26T12:08:56.119Z,97809.00
2019-01-26T12:11:32.787Z,97809.00
2019-01-26T12:14:09.556Z,97803.00
2019-01-26T12:16:46.674Z,97798.00
2019-01-26T12:19:23.559Z,97805.00
2019-01-26T12:22:00.749Z,97796.00
2019-01-26T12:24:37.625Z,97781.00
2019-01-26T12:27:14.606Z,97778.00
2019-01-26T12:29:51.470Z,97796.00
2019-01-26T12:32:28.270Z,97791.00
2019-01-26T12:35:16.698Z,97793.00
2019-01-26T12:37:53.687Z,97788.00
2019-01-26T12:40:30.463Z,97775.00
2019-01-26T12:43:08.461Z,97779.00
2019-01-26T12:45:45.244Z,97787.00
2019-01-26T12:48:22.219Z,97779.00
2019-01-26T12:50:58.937Z,97779.00
2019-01-26T12:53:35.877Z,97767.00
2019-01-26T12:56:12.745Z,97768.00
2019-01-26T12:58:49.719Z,97762.00
2019-01-26T13:01:26.604Z,97759.00
2019-01-26T13:04:03.487Z,97768.00
2019-01-26T13:06:40.362Z,97754.00
2019-01-26T13:09:17.337Z,97765.00
2019-01-26T13:11:54.233Z,97748.00
2019-01-26T13:14:31.096Z,97742.00
2019-01-26T13:17:08.088Z,97753.00
2019-01-26T13:19:44.953Z,97741.00
2019-01-26T13:22:22.245Z,97744.00
2019-01-26T13:24:59.018Z,97743.00
2019-01-26T13:27:35.900Z,97735.00
2019-01-26T13:30:17.565Z,97739.00
2019-01-26T13:32:54.560Z,97735.00
2019-01-26T13:35:31.448Z,97725.00
2019-01-26T13:38:08.228Z,97738.00
2019-01-26T13:40:45.007Z,97734.00
2019-01-26T13:43:21.979Z,97731.00
2019-01-26T13:45:58.769Z,97726.00
2019-01-26T13:48:35.623Z,97720.00
2019-01-26T13:51:13.036Z,97717.00
2019-01-26T13:53:50.221Z,97732.00
2019-01-26T13:56:26.986Z,97726.00
2019-01-26T13:59:03.750Z,97705.00
2019-01-26T14:01:40.739Z,97722.00
2019-01-26T14:04:17.607Z,97710.00
2019-01-26T14:06:55.011Z,97706.00
2019-01-26T14:09:31.887Z,97718.00
2019-01-26T14:12:08.773Z,97721.00
2019-01-26T14:14:45.646Z,97719.00
2019-01-26T14:17:22.631Z,97700.00
2019-01-26T14:19:59.490Z,97720.00
2019-01-26T14:22:36.482Z,97715.00
2019-01-26T14:25:15.626Z,97715.00
2019-01-26T14:27:52.493Z,97701.00
2019-01-26T14:30:42.374Z,97715.00
2019-01-26T14:33:19.307Z,97702.00
2019-01-26T14:35:56.094Z,97709.00
2019-01-26T14:38:33.898Z,97694.00
2019-01-26T14:41:10.627Z,97703.00
2019-01-26T14:43:47.574Z,97717.00
2019-01-26T14:46:24.384Z,97707.00
2019-01-26T14:49:01.241Z,97722.00
2019-01-26T14:51:38.005Z,97716.00
2019-01-26T14:54:14.801Z,97722.00
2019-01-26T14:56:51.523Z,97723.00
2019-01-26T14:59:28.292Z,97712.00
2019-01-26T15:02:05.147Z,97721.00
2019-01-26T15:04:42.008Z,97715.00
2019-01-26T15:07:18.902Z,97722.00
2019-01-26T15:09:55.652Z,97727.00
2019-01-26T15:12:32.518Z,97732.00
2019-01-26T15:15:16.529Z,97724.00
2019-01-26T15:17:53.455Z,97706.00
2019-01-26T15:20:39.615Z,97726.00
2019-01-26T15:23:16.413Z,97729.00
2019-01-26T15:25:53.195Z,97730.00
2019-01-26T15:28:29.897Z,97728.00
2019-01-26T15:31:06.944Z,97726.00
2019-01-26T15:33:43.809Z,97717.00
2019-01-26T15:36:20.609Z,97717.00
2019-01-26T15:38:57.670Z,97712.00
2019-01-26T15:41:34.487Z,97723.00
2019-01-26T15:44:11.203Z,97715.00
2019-01-26T15:46:48.003Z,97709.00
2019-01-26T15:49:24.801Z,97699.00
2019-01-26T15:52:01.802Z,97714.00
2019-01-26T15:54:38.534Z,97707.00
2019-01-26T15:57:15.293Z,97715.00
2019-01-26T15:59:53.556Z,97731.00
2019-01-26T16:02:30.376Z,97715.00
2019-01-26T16:05:09.248Z,97718.00
2019-01-26T16:07:45.991Z,97720.00
2019-01-26T16:10:25.102Z,97720.00
2019-01-26T16:13:01.834Z,97736.00
2019-01-26T16:15:39.661Z,97732.00
2019-01-26T16:18:16.381Z,97733.00
2019-01-26T16:20:53.212Z,97717.00
2019-01-26T16:23:30.080Z,97729.00
2019-01-26T16:26:06.858Z,97724.00
2019-01-26T16:28:43.570Z,97743.00
2019-01-26T16:31:20.679Z,97737.00
2019-01-26T16:33:57.467Z,97730.00
2019-01-26T16:36:34.193Z,97744.00
2019-01-26T16:39:10.940Z,97731.00
2019-01-26T16:41:47.776Z,97740.00
2019-01-26T16:44:24.571Z,97731.00
2019-01-26T16:47:01.399Z,97744.00
2019-01-26T16:49:38.319Z,97740.00
2019-01-26T16:52:15.278Z,97737.00
2019-01-26T16:54:51.984Z,97752.00
2019-01-26T16:57:28.826Z,97739.00
2019-01-26T17:00:13.324Z,97736.00
2019-01-26T17:02:50.196Z,97730.00
2019-01-26T17:05:27.073Z,97733.00
2019-01-26T17:08:03.871Z,97729.00
2019-01-26T17:10:41.223Z,97728.00
2019-01-26T17:13:17.989Z,97739.00
2019-01-26T17:15:55.053Z,97736.00
2019-01-26T17:18:31.896Z,97748.00
2019-01-26T17:21:08.635Z,97754.00
2019-01-26T17:23:45.608Z,97750.00
2019-01-26T17:26:22.692Z,97750.00
2019-01-26T17:28:59.576Z,97740.00
2019-01-26T17:31:37.471Z,97748.00
2019-01-26T17:34:14.453Z,97749.00
2019-01-26T17:36:51.144Z,97760.00
2019-01-26T17:39:27.896Z,97743.00
2019-01-26T17:42:04.867Z,97751.00
2019-01-26T17:44:41.756Z,97759.00
2019-01-26T17:47:18.626Z,97745.00
2019-01-26T17:49:55.516Z,97768.00
2019-01-26T17:52:32.489Z,97754.00
2019-01-26T17:55:11.827Z,97755.00
2019-01-26T17:57:49.212Z,97768.00
2019-01-26T18:00:47.301Z,97753.00
2019-01-26T18:03:24.174Z,97773.00
2019-01-26T18:06:01.045Z,97765.00
2019-01-26T18:08:38.022Z,97762.00
2019-01-26T18:11:15.013Z,97769.00
2019-01-26T18:13:51.889Z,97754.00
2019-01-26T18:16:28.860Z,97762.00
2019-01-26T18:19:05.746Z,97751.00
2019-01-26T18:21:42.723Z,97752.00
2019-01-26T18:24:19.500Z,97750.00
2019-01-26T18:26:56.479Z,97758.00
2019-01-26T18:29:33.562Z,97756.00
2019-01-26T18:32:10.449Z,97750.00
2019-01-26T18:34:47.213Z,97750.00
2019-01-26T18:37:25.163Z,97742.00
2019-01-26T18:40:02.202Z,97751.00
2019-01-26T18:42:39.803Z,97749.00
2019-01-26T18:45:19.956Z,97741.00
2019-01-26T18:47:56.726Z,97735.00
2019-01-26T18:50:43.577Z,97747.00
2019-01-26T18:53:20.634Z,97739.00
2019-01-26T18:55:57.607Z,97735.00
2019-01-26T18:58:34.579Z,97745.00
2019-01-26T19:01:11.559Z,97744.00
2019-01-26T19:03:56.123Z,97740.00
2019-01-26T19:06:33.321Z,97738.00
2019-01-26T19:09:10.804Z,97725.00
2019-01-26T19:11:47.870Z,97744.00
2019-01-26T19:14:25.882Z,97738.00
2019-01-26T19:17:02.759Z,97738.00
2019-01-26T19:19:39.543Z,97745.00
2019-01-26T19:22:16.627Z,97746.00
2019-01-26T19:24:53.706Z,97740.00
2019-01-26T19:27:31.083Z,97749.00
2019-01-26T19:30:12.682Z,97728.00
2019-01-26T19:32:49.549Z,97725.00
2019-01-26T19:35:26.530Z,97718.00
2019-01-26T19:38:03.734Z,97730.00
2019-01-26T19:40:40.432Z,97724.00
2019-01-26T19:43:17.213Z,97717.00
2019-01-26T19:45:53.928Z,97724.00
2019-01-26T19:48:30.667Z,97722.00
2019-01-26T19:51:10.002Z,97738.00
2019-01-26T19:53:46.003Z,97719.00
2019-01-26T19:56:22.779Z,97725.00
2019-01-26T19:59:00.611Z,97724.00
2019-01-26T20:01:37.356Z,97710.00
2019-01-26T20:04:14.199Z,97721.00
2019-01-26T20:06:52.303Z,97714.00
2019-01-26T20:09:29.107Z,97703.00
2019-01-26T20:12:06.055Z,97721.00
2019-01-26T20:14:42.820Z,97700.00
2019-01-26T20:17:20.335Z,97699.00
2019-01-26T20:19:57.129Z,97715.00
2019-01-26T20:22:33.936Z,97712.00
2019-01-26T20:25:10.715Z,97711.00
2019-01-26T20:27:47.455Z,97709.00
2019-01-26T20:30:30.555Z,97704.00
2019-01-26T20:33:08.105Z,97715.00
2019-01-26T20:35:44.836Z,97704.00
2019-01-26T20:38:23.087Z,97694.00
2019-01-26T20:41:00.017Z,97695.00
2019-01-26T20:43:37.080Z,97686.00
2019-01-26T20:46:13.820Z,97695.00
2019-01-26T20:48:50.591Z,97690.00
2019-01-26T20:51:27.359Z,97677.00
2019-01-26T20:54:04.133Z,97685.00
2019-01-26T20:56:41.066Z,97670.00
2019-01-26T20:59:17.890Z,97687.00
2019-01-26T21:01:54.742Z,97634.00
2019-01-26T21:04:31.957Z,97697.00
2019-01-26T21:07:08.839Z,97685.00
2019-01-26T21:09:45.709Z,97692.00
2019-01-26T21:12:22.595Z,97694.00
2019-01-26T21:15:04.557Z,97689.00
2019-01-26T21:17:38.304Z,97700.00
2019-01-26T21:20:18.583Z,97695.00
2019-01-26T21:22:55.425Z,97702.00
2019-01-26T21:25:32.117Z,97706.00
2019-01-26T21:28:08.982Z,97714.00
2019-01-26T21:30:45.860Z,97694.00
2019-01-26T21:33:23.715Z,97700.00
2019-01-26T21:36:00.531Z,97688.00
2019-01-26T21:38:37.633Z,97689.00
2019-01-26T21:41:14.713Z,97697.00
2019-01-26T21:43:51.473Z,97678.00
2019-01-26T21:46:28.719Z,97681.00
2019-01-26T21:49:14.971Z,97687.00
2019-01-26T21:51:52.224Z,97695.00
2019-01-26T21:54:29.240Z,97675.00
2019-01-26T21:57:07.244Z,97682.00
2019-01-26T21:59:44.107Z,97684.00
2019-01-26T22:02:20.991Z,97686.00
2019-01-26T22:04:59.764Z,97690.00
2019-01-26T22:07:37.218Z,97667.00
2019-01-26T22:10:28.359Z,97674.00
2019-01-26T22:13:05.192Z,97677.00
2019-01-26T22:15:41.962Z,97678.00
2019-01-26T22:18:18.956Z,97677.00
2019-01-26T22:20:55.931Z,97673.00
2019-01-26T22:23:32.809Z,97664.00
2019-01-26T22:26:09.679Z,97674.00
2019-01-26T22:28:46.470Z,97677.00
2019-01-26T22:31:24.324Z,97674.00
2019-01-26T22:34:01.247Z,97668.00
2019-01-26T22:36:38.023Z,97678.00
2019-01-26T22:39:14.901Z,97678.00
2019-01-26T22:41:52.082Z,97689.00
2019-01-26T22:44:28.959Z,97674.00
2019-01-26T22:47:05.934Z,97674.00
2019-01-26T22:49:42.822Z,97664.00
2019-01-26T22:52:32.699Z,97665.00
2019-01-26T22:55:15.735Z,97673.00
2019-01-26T22:57:52.436Z,97656.00
2019-01-26T23:00:56.317Z,97653.00
2019-01-26T23:03:50.908Z,97672.00
2019-01-26T23:06:51.963Z,97666.00
2019-01-26T23:09:38.967Z,97666.00
2019-01-26T23:12:29.160Z,97659.00
2019-01-26T23:15:36.228Z,97661.00
2019-01-26T23:18:26.932Z,97670.00
2019-01-26T23:21:25.225Z,97661.00
2019-01-26T23:24:36.970Z,97680.00
2019-01-26T23:27:27.610Z,97678.00
2019-01-26T23:30:32.760Z,97670.00
2019-01-26T23:33:09.733Z,97658.00
2019-01-26T23:35:46.623Z,97659.00
2019-01-26T23:38:23.594Z,97656.00
2019-01-26T23:41:00.472Z,97646.00
2019-01-26T23:43:37.457Z,97652.00
2019-01-26T23:46:14.220Z,97653.00
2019-01-26T23:48:51.406Z,97646.00
2019-01-26T23:51:28.598Z,97644.00
2019-01-26T23:54:05.379Z,97649.00
2019-01-26T23:56:42.258Z,97646.00
2019-01-26T23:59:19.033Z,97647.00
